createdAt,value
2022-10-07T00:03:26.611Z,47.90
2022-10-07T00:06:21.331Z,44.50
2022-10-07T00:08:51.285Z,46.80
2022-10-07T00:11:24.332Z,63.10
2022-10-07T00:14:00.837Z,52.10
2022-10-07T00:16:30.610Z,46.50
2022-10-07T00:19:00.499Z,59.10
2022-10-07T00:21:30.175Z,46.20
2022-10-07T00:23:57.959Z,62.60
2022-10-07T00:26:26.886Z,46.90
2022-10-07T00:31:30.628Z,46.90
2022-10-07T00:36:31.014Z,47.40
2022-10-07T00:39:00.241Z,47.60
2022-10-07T00:41:34.054Z,45.60
2022-10-07T00:44:21.925Z,62.90
2022-10-07T00:54:16.293Z,47.90
2022-10-07T00:56:44.654Z,48.20
2022-10-07T00:59:13.187Z,48.00
2022-10-07T01:04:11.875Z,48.60
2022-10-07T01:06:39.244Z,55.60
2022-10-07T01:09:10.902Z,64.30
2022-10-07T01:11:55.923Z,46.90
2022-10-07T01:17:30.431Z,46.80
2022-10-07T01:20:22.504Z,65.60
2022-10-07T01:23:17.630Z,47.30
2022-10-07T01:26:17.394Z,49.30
2022-10-07T01:28:46.846Z,65.60
2022-10-07T01:31:18.445Z,49.20
2022-10-07T01:33:48.097Z,48.90
2022-10-07T01:36:17.951Z,49.30
2022-10-07T01:38:56.732Z,47.00
2022-10-07T01:43:53.955Z,51.90
2022-10-07T01:46:26.739Z,66.10
2022-10-07T01:48:57.548Z,66.20
2022-10-07T01:51:28.380Z,49.00
2022-10-07T01:54:10.490Z,47.30
2022-10-07T01:56:58.319Z,65.20
2022-10-07T01:59:45.496Z,47.60
2022-10-07T02:04:59.083Z,49.40
2022-10-07T02:07:44.335Z,64.90
2022-10-07T02:10:36.761Z,66.30
2022-10-07T02:13:29.031Z,47.80
2022-10-07T02:16:17.886Z,48.00
2022-10-07T02:18:51.849Z,47.70
2022-10-07T02:21:22.979Z,50.40
2022-10-07T02:23:50.861Z,49.60
2022-10-07T02:26:21.577Z,50.40
2022-10-07T02:28:52.207Z,50.90
2022-10-07T02:31:27.573Z,50.40
2022-10-07T02:36:35.518Z,49.00
2022-10-07T02:39:05.359Z,50.30
2022-10-07T02:41:41.874Z,57.20
2022-10-07T02:44:25.759Z,49.20
2022-10-07T02:47:03.623Z,51.30
2022-10-07T02:49:32.869Z,50.90
2022-10-07T02:52:05.474Z,51.10
2022-10-07T02:54:42.779Z,66.90
2022-10-07T02:57:14.617Z,51.30
2022-10-07T03:02:14.964Z,56.10
2022-10-07T03:07:10.678Z,65.80
2022-10-07T03:24:26.545Z,68.40
2022-10-07T03:29:20.798Z,68.40
2022-10-07T03:36:45.449Z,68.60
2022-10-07T03:44:10.469Z,69.00
2022-10-07T03:54:00.964Z,69.60
2022-10-07T03:59:00.437Z,57.20
2022-10-07T04:04:00.853Z,52.20
2022-10-07T04:28:49.221Z,70.30
2022-10-07T04:31:19.846Z,59.40
2022-10-07T04:36:24.953Z,66.80
2022-10-07T04:49:03.706Z,70.30
2022-10-07T05:19:00.085Z,70.50
2022-10-07T05:44:26.077Z,71.90
2022-10-07T05:54:18.483Z,62.30
2022-10-07T06:37:09.732Z,65.50
2022-10-07T06:49:39.892Z,68.60
2022-10-07T06:52:07.462Z,60.20
2022-10-07T06:57:08.183Z,68.30
2022-10-07T06:59:49.297Z,60.30
2022-10-07T07:09:40.276Z,67.80
2022-10-07T07:22:09.507Z,66.20
2022-10-07T07:24:38.825Z,65.50
2022-10-07T07:27:06.142Z,58.90
2022-10-07T07:29:33.017Z,66.20
2022-10-07T07:34:36.325Z,58.60
2022-10-07T07:37:03.323Z,61.40
2022-10-07T07:54:41.936Z,63.30
2022-10-07T07:59:37.705Z,62.80
2022-10-07T08:07:02.602Z,52.20
2022-10-07T08:14:25.806Z,59.20
2022-10-07T08:19:28.996Z,42.00
2022-10-07T08:21:57.488Z,41.00
2022-10-07T08:29:22.999Z,57.20
2022-10-07T08:41:57.134Z,43.80
2022-10-07T08:44:35.983Z,41.80
2022-10-07T08:47:22.692Z,57.20
2022-10-07T08:50:19.514Z,40.60
2022-10-07T08:55:50.413Z,50.60
2022-10-07T08:58:30.973Z,55.20
2022-10-07T09:01:09.233Z,38.90
2022-10-07T09:04:06.295Z,38.40
2022-10-07T09:06:52.789Z,38.80
2022-10-07T09:09:27.583Z,40.10
2022-10-07T09:11:56.086Z,56.00
2022-10-07T09:14:38.141Z,51.80
2022-10-07T09:17:20.070Z,39.40
2022-10-07T09:19:56.645Z,41.10
2022-10-07T09:22:32.146Z,53.40
2022-10-07T09:25:11.800Z,36.80
2022-10-07T09:30:07.071Z,51.70
2022-10-07T09:32:38.343Z,36.00
2022-10-07T09:35:06.105Z,51.50
2022-10-07T09:40:22.881Z,49.40
2022-10-07T09:45:33.050Z,50.50
2022-10-07T09:48:07.529Z,33.90
2022-10-07T09:50:43.150Z,49.10
2022-10-07T09:53:32.022Z,33.70
2022-10-07T09:58:28.493Z,50.10
2022-10-07T10:00:58.316Z,43.20
2022-10-07T10:03:34.149Z,47.80
2022-10-07T10:06:06.834Z,46.20
2022-10-07T10:08:36.002Z,47.40
2022-10-07T10:11:18.392Z,45.60
2022-10-07T10:13:48.310Z,43.60
2022-10-07T10:16:36.259Z,42.50
2022-10-07T10:19:24.270Z,41.80
2022-10-07T10:21:53.245Z,37.50
2022-10-07T10:24:40.108Z,41.30
2022-10-07T10:27:16.746Z,43.10
2022-10-07T10:30:02.862Z,27.60
2022-10-07T10:33:20.681Z,42.30
2022-10-07T10:36:29.582Z,40.10
2022-10-07T10:39:27.740Z,40.00
2022-10-07T10:41:59.977Z,26.00
2022-10-07T10:44:32.837Z,38.50
2022-10-07T10:47:37.170Z,37.00
2022-10-07T10:50:25.102Z,23.90
2022-10-07T10:53:01.607Z,35.20
2022-10-07T10:55:49.766Z,22.80
2022-10-07T10:58:30.256Z,34.80
2022-10-07T11:01:15.528Z,35.10
2022-10-07T11:03:51.140Z,34.90
2022-10-07T11:06:19.393Z,33.10
2022-10-07T11:08:47.994Z,22.30
2022-10-07T11:11:20.451Z,21.30
2022-10-07T11:14:26.425Z,23.90
2022-10-07T11:16:58.583Z,22.20
2022-10-07T11:19:35.759Z,34.30
2022-10-07T11:22:03.562Z,35.70
2022-10-07T11:24:42.740Z,32.00
2022-10-07T11:27:27.447Z,23.10
2022-10-07T11:30:07.958Z,35.60
2022-10-07T11:32:57.693Z,22.80
2022-10-07T11:35:47.443Z,28.40
2022-10-07T11:38:18.710Z,23.80
2022-10-07T11:40:48.577Z,24.20
2022-10-07T11:43:25.374Z,24.20
2022-10-07T11:45:56.580Z,23.20
2022-10-07T11:48:33.274Z,23.40
2022-10-07T11:51:03.895Z,23.60
2022-10-07T11:53:35.738Z,32.40
2022-10-07T11:56:26.529Z,21.40
2022-10-07T11:59:02.265Z,21.10
2022-10-07T12:01:47.939Z,31.80
2022-10-07T12:04:25.005Z,30.00
2022-10-07T12:07:29.461Z,21.00
2022-10-07T12:10:18.184Z,31.00
2022-10-07T12:12:46.156Z,29.90
2022-10-07T12:15:27.796Z,29.40
2022-10-07T12:18:17.625Z,19.50
2022-10-07T12:20:50.965Z,18.80
2022-10-07T12:26:31.070Z,30.20
2022-10-07T12:31:25.426Z,27.80
2022-10-07T12:34:10.989Z,21.60
2022-10-07T12:36:42.869Z,27.80
2022-10-07T12:41:45.267Z,18.40
2022-10-07T12:44:37.371Z,28.70
2022-10-07T12:47:18.600Z,19.60
2022-10-07T12:49:50.295Z,20.20
2022-10-07T12:52:20.099Z,20.90
2022-10-07T12:55:01.825Z,21.10
2022-10-07T12:57:36.183Z,24.40
2022-10-07T13:00:15.800Z,21.70
2022-10-07T13:03:13.540Z,32.90
2022-10-07T13:05:58.508Z,21.90
2022-10-07T13:08:49.390Z,25.90
2022-10-07T13:11:28.574Z,32.50
2022-10-07T13:14:10.852Z,33.30
2022-10-07T13:16:54.133Z,34.80
2022-10-07T13:19:30.403Z,22.50
2022-10-07T13:22:12.025Z,33.30
2022-10-07T13:24:46.983Z,28.70
2022-10-07T13:27:41.951Z,21.80
2022-10-07T13:30:31.704Z,31.80
2022-10-07T13:33:21.733Z,21.70
2022-10-07T13:35:49.945Z,32.50
2022-10-07T13:38:28.266Z,32.20
2022-10-07T13:41:06.740Z,33.30
2022-10-07T13:43:35.853Z,21.40
2022-10-07T13:46:05.117Z,21.10
2022-10-07T13:48:35.161Z,32.20
2022-10-07T13:51:02.946Z,32.70
2022-10-07T13:53:35.230Z,32.90
2022-10-07T13:56:24.202Z,32.10
2022-10-07T13:58:55.090Z,32.80
2022-10-07T14:01:27.455Z,32.10
2022-10-07T14:04:14.945Z,22.40
2022-10-07T14:07:17.437Z,21.70
2022-10-07T14:12:20.270Z,21.50
2022-10-07T14:14:49.861Z,21.50
2022-10-07T14:17:28.532Z,21.30
2022-10-07T14:20:05.611Z,27.70
2022-10-07T14:22:38.032Z,22.60
2022-10-07T14:25:07.779Z,34.10
2022-10-07T14:27:40.709Z,34.80
2022-10-07T14:30:55.528Z,23.40
2022-10-07T14:33:58.381Z,23.80
2022-10-07T14:36:25.545Z,34.90
2022-10-07T14:38:53.177Z,24.50
2022-10-07T14:41:22.860Z,31.40
2022-10-07T14:43:51.905Z,36.50
2022-10-07T14:46:24.431Z,38.30
2022-10-07T14:48:53.502Z,25.20
2022-10-07T14:51:29.517Z,38.90
2022-10-07T14:54:06.813Z,25.40
2022-10-07T14:56:36.710Z,38.40
2022-10-07T15:01:30.958Z,38.50
2022-10-07T15:03:58.514Z,38.60
2022-10-07T15:11:21.518Z,25.90
2022-10-07T15:13:49.949Z,37.70
2022-10-07T15:16:22.761Z,25.20
2022-10-07T15:21:22.000Z,35.60
2022-10-07T15:23:53.239Z,23.60
2022-10-07T15:26:24.074Z,33.30
2022-10-07T15:28:54.277Z,33.50
2022-10-07T15:31:23.293Z,22.30
2022-10-07T15:33:50.415Z,33.80
2022-10-07T15:36:17.908Z,33.40
2022-10-07T15:38:44.815Z,35.20
2022-10-07T15:41:29.930Z,23.10
2022-10-07T15:44:01.711Z,23.40
2022-10-07T15:48:56.623Z,36.30
2022-10-07T15:51:24.580Z,24.90
2022-10-07T15:53:52.389Z,34.00
2022-10-07T16:03:44.736Z,27.00
2022-10-07T16:06:25.391Z,39.20
2022-10-07T16:08:55.092Z,27.00
2022-10-07T16:13:49.954Z,27.30
2022-10-07T16:16:25.162Z,40.70
2022-10-07T16:18:54.246Z,40.80
2022-10-07T16:21:29.073Z,31.80
2022-10-07T16:23:58.358Z,29.40
2022-10-07T16:26:29.912Z,28.10
2022-10-07T16:29:17.603Z,42.00
2022-10-07T16:31:46.091Z,41.90
2022-10-07T16:34:15.071Z,28.60
2022-10-07T16:39:13.419Z,42.60
2022-10-07T16:41:44.026Z,43.00
2022-10-07T16:49:07.682Z,30.10
2022-10-07T16:51:37.068Z,30.40
2022-10-07T16:54:15.959Z,30.40
2022-10-07T16:56:48.173Z,30.50
2022-10-07T16:59:22.727Z,45.40
2022-10-07T17:01:53.194Z,31.20
2022-10-07T17:04:20.455Z,33.30
2022-10-07T17:06:47.834Z,47.10
2022-10-07T17:14:31.453Z,47.30
2022-10-07T17:19:28.322Z,47.50
2022-10-07T17:21:57.272Z,47.70
2022-10-07T17:26:52.908Z,49.10
2022-10-07T17:29:21.873Z,33.90
2022-10-07T17:31:50.974Z,49.40
2022-10-07T17:34:20.079Z,33.80
2022-10-07T17:36:47.876Z,48.80
2022-10-07T17:44:11.779Z,34.60
2022-10-07T17:46:39.756Z,49.20
2022-10-07T17:49:08.563Z,50.20
2022-10-07T17:51:37.195Z,43.50
2022-10-07T17:54:05.088Z,35.30
2022-10-07T17:56:32.616Z,50.40
2022-10-07T18:01:34.193Z,35.90
2022-10-07T18:04:03.699Z,36.00
2022-10-07T18:06:33.843Z,36.20
2022-10-07T18:09:04.804Z,36.20
2022-10-07T18:17:05.474Z,41.70
2022-10-07T18:21:59.932Z,46.10
2022-10-07T18:24:28.713Z,37.10
2022-10-07T18:26:58.716Z,52.70
2022-10-07T18:29:26.924Z,47.10
2022-10-07T18:49:13.830Z,44.30
2022-10-07T18:59:08.024Z,53.40
2022-10-07T19:01:35.248Z,53.40
2022-10-07T19:04:03.602Z,53.60
2022-10-07T19:06:33.366Z,37.50
2022-10-07T19:09:03.724Z,53.60
2022-10-07T19:13:59.197Z,37.80
2022-10-07T19:16:30.684Z,37.20
2022-10-07T19:18:59.289Z,38.10
2022-10-07T19:23:55.824Z,38.40
2022-10-07T19:26:24.764Z,38.40
2022-10-07T19:28:53.669Z,37.90
2022-10-07T19:31:24.331Z,53.90
2022-10-07T19:34:02.544Z,37.40
2022-10-07T19:36:35.932Z,37.90
2022-10-07T19:39:04.205Z,54.50
2022-10-07T19:41:33.153Z,38.10
2022-10-07T19:46:30.230Z,38.10
2022-10-07T19:48:59.233Z,52.20
2022-10-07T19:51:30.075Z,46.40
2022-10-07T19:53:58.369Z,38.30
2022-10-07T19:56:28.351Z,38.10
2022-10-07T19:59:00.412Z,54.30
2022-10-07T20:01:31.898Z,37.90
2022-10-07T20:04:04.730Z,53.70
2022-10-07T20:16:24.709Z,37.80
2022-10-07T20:18:58.506Z,38.10
2022-10-07T20:23:53.896Z,38.20
2022-10-07T20:26:29.245Z,37.50
2022-10-07T20:28:58.234Z,54.80
2022-10-07T20:31:28.811Z,38.80
2022-10-07T20:33:57.684Z,38.60
2022-10-07T20:36:27.207Z,38.90
2022-10-07T20:39:25.037Z,39.00
2022-10-07T20:42:12.054Z,39.20
2022-10-07T20:44:39.484Z,55.70
2022-10-07T20:47:07.786Z,39.20
2022-10-07T20:49:37.171Z,42.50
2022-10-07T20:52:13.875Z,45.60
2022-10-07T20:57:08.198Z,55.30
2022-10-07T21:02:07.198Z,55.70
2022-10-07T21:09:36.559Z,54.20
2022-10-07T21:12:07.235Z,40.10
2022-10-07T21:14:35.307Z,40.40
2022-10-07T21:26:53.629Z,49.10
2022-10-07T21:31:47.685Z,57.50
2022-10-07T21:36:50.338Z,41.30
2022-10-07T21:39:19.807Z,57.40
2022-10-07T21:49:10.931Z,51.40
2022-10-07T21:54:05.638Z,58.80
2022-10-07T21:56:33.576Z,42.10
2022-10-07T21:59:01.558Z,57.40
2022-10-07T22:03:58.434Z,41.90
2022-10-07T22:06:44.825Z,41.50
2022-10-07T22:09:14.053Z,41.90
2022-10-07T22:14:12.353Z,47.50
2022-10-07T22:19:07.546Z,50.70
2022-10-07T22:21:38.158Z,56.80
2022-10-07T22:24:07.063Z,47.50
2022-10-07T22:26:40.623Z,57.10
2022-10-07T22:29:09.528Z,42.00
2022-10-07T22:43:54.550Z,57.50
2022-10-07T22:46:26.033Z,53.70
2022-10-07T22:48:56.221Z,42.80
2022-10-07T22:51:24.507Z,42.30
2022-10-07T22:53:54.367Z,42.50
2022-10-07T22:56:22.766Z,42.80
2022-10-07T22:58:57.840Z,42.80
2022-10-07T23:01:25.882Z,42.20
2022-10-07T23:03:52.995Z,58.70
2022-10-07T23:08:48.418Z,42.90
2022-10-07T23:11:22.249Z,43.40
2022-10-07T23:16:20.956Z,43.70
2022-10-07T23:18:49.795Z,51.70
2022-10-07T23:21:34.978Z,42.30
2022-10-07T23:31:31.690Z,57.30
2022-10-07T23:34:00.191Z,59.50
2022-10-07T23:38:55.071Z,44.70
2022-10-07T23:41:27.169Z,43.00
2022-10-07T23:43:56.395Z,43.90
2022-10-07T23:46:26.280Z,44.00
2022-10-07T23:48:53.821Z,60.90
2022-10-07T23:51:22.480Z,61.90
2022-10-07T23:56:18.794Z,63.40
